sensor_id;sensor_type;location;lat;lon;timestamp;P1;durP1;ratioP1;P2;durP2;ratioP2
12816;SDS011;6473;51.552;6.716;2023-12-29T00:01:55;2.00;;;1.17;;
12816;SDS011;6473;51.552;6.716;2023-12-29T00:04:24;3.10;;;1.30;;
12816;SDS011;6473;51.552;6.716;2023-12-29T00:06:51;4.57;;;1.40;;
12816;SDS011;6473;51.552;6.716;2023-12-29T00:09:20;1.58;;;1.00;;
12816;SDS011;6473;51.552;6.716;2023-12-29T00:11:47;4.40;;;1.25;;
12816;SDS011;6473;51.552;6.716;2023-12-29T00:14:14;3.55;;;1.35;;
12816;SDS011;6473;51.552;6.716;2023-12-29T00:16:41;4.03;;;1.90;;
12816;SDS011;6473;51.552;6.716;2023-12-29T00:19:09;5.25;;;1.33;;
12816;SDS011;6473;51.552;6.716;2023-12-29T00:21:36;4.55;;;1.30;;
12816;SDS011;6473;51.552;6.716;2023-12-29T00:24:03;2.80;;;1.13;;
12816;SDS011;6473;51.552;6.716;2023-12-29T00:26:32;5.07;;;1.40;;
12816;SDS011;6473;51.552;6.716;2023-12-29T00:28:59;3.15;;;1.40;;
12816;SDS011;6473;51.552;6.716;2023-12-29T00:31:26;2.13;;;1.17;;
12816;SDS011;6473;51.552;6.716;2023-12-29T00:33:53;4.15;;;1.17;;
12816;SDS011;6473;51.552;6.716;2023-12-29T00:36:20;2.20;;;1.27;;
12816;SDS011;6473;51.552;6.716;2023-12-29T00:38:48;2.70;;;1.08;;
12816;SDS011;6473;51.552;6.716;2023-12-29T00:41:16;5.07;;;1.50;;
12816;SDS011;6473;51.552;6.716;2023-12-29T00:43:45;4.00;;;1.92;;
12816;SDS011;6473;51.552;6.716;2023-12-29T00:46:14;3.22;;;1.30;;
12816;SDS011;6473;51.552;6.716;2023-12-29T00:48:41;2.58;;;1.15;;
12816;SDS011;6473;51.552;6.716;2023-12-29T00:51:09;6.45;;;1.48;;
12816;SDS011;6473;51.552;6.716;2023-12-29T00:53:35;5.25;;;1.15;;
12816;SDS011;6473;51.552;6.716;2023-12-29T00:56:02;4.80;;;1.60;;
12816;SDS011;6473;51.552;6.716;2023-12-29T00:58:30;3.25;;;1.30;;
12816;SDS011;6473;51.552;6.716;2023-12-29T01:00:58;2.97;;;1.23;;
12816;SDS011;6473;51.552;6.716;2023-12-29T01:03:25;5.85;;;1.30;;
12816;SDS011;6473;51.552;6.716;2023-12-29T01:05:52;3.30;;;1.50;;
12816;SDS011;6473;51.552;6.716;2023-12-29T01:08:20;3.13;;;1.10;;
12816;SDS011;6473;51.552;6.716;2023-12-29T01:10:47;3.30;;;1.15;;
12816;SDS011;6473;51.552;6.716;2023-12-29T01:13:14;3.58;;;1.27;;
12816;SDS011;6473;51.552;6.716;2023-12-29T01:15:41;5.20;;;1.42;;
12816;SDS011;6473;51.552;6.716;2023-12-29T01:18:11;3.65;;;1.27;;
12816;SDS011;6473;51.552;6.716;2023-12-29T01:20:39;4.53;;;1.50;;
12816;SDS011;6473;51.552;6.716;2023-12-29T01:23:06;4.20;;;1.45;;
12816;SDS011;6473;51.552;6.716;2023-12-29T01:25:33;3.35;;;1.25;;
12816;SDS011;6473;51.552;6.716;2023-12-29T01:28:00;4.93;;;1.60;;
12816;SDS011;6473;51.552;6.716;2023-12-29T01:30:28;5.63;;;1.48;;
12816;SDS011;6473;51.552;6.716;2023-12-29T01:32:55;3.00;;;1.15;;
12816;SDS011;6473;51.552;6.716;2023-12-29T01:35:23;2.13;;;1.38;;
12816;SDS011;6473;51.552;6.716;2023-12-29T01:37:50;3.63;;;1.52;;
12816;SDS011;6473;51.552;6.716;2023-12-29T01:40:18;3.05;;;1.20;;
12816;SDS011;6473;51.552;6.716;2023-12-29T01:42:45;4.95;;;1.45;;
12816;SDS011;6473;51.552;6.716;2023-12-29T01:45:16;1.23;;;1.10;;
12816;SDS011;6473;51.552;6.716;2023-12-29T01:47:47;5.25;;;1.38;;
12816;SDS011;6473;51.552;6.716;2023-12-29T01:50:14;5.43;;;1.58;;
12816;SDS011;6473;51.552;6.716;2023-12-29T01:52:43;3.00;;;1.40;;
12816;SDS011;6473;51.552;6.716;2023-12-29T01:55:10;2.78;;;1.50;;
12816;SDS011;6473;51.552;6.716;2023-12-29T01:57:38;6.90;;;1.58;;
12816;SDS011;6473;51.552;6.716;2023-12-29T02:00:07;3.92;;;1.42;;
12816;SDS011;6473;51.552;6.716;2023-12-29T02:02:37;2.60;;;1.52;;
12816;SDS011;6473;51.552;6.716;2023-12-29T02:05:05;6.82;;;1.83;;
12816;SDS011;6473;51.552;6.716;2023-12-29T02:07:32;3.00;;;1.85;;
12816;SDS011;6473;51.552;6.716;2023-12-29T02:10:00;5.75;;;1.70;;
12816;SDS011;6473;51.552;6.716;2023-12-29T02:12:28;8.15;;;2.08;;
12816;SDS011;6473;51.552;6.716;2023-12-29T02:14:56;6.57;;;1.85;;
12816;SDS011;6473;51.552;6.716;2023-12-29T02:17:24;6.90;;;1.60;;
12816;SDS011;6473;51.552;6.716;2023-12-29T02:19:53;7.53;;;2.30;;
12816;SDS011;6473;51.552;6.716;2023-12-29T02:22:20;4.35;;;2.13;;
12816;SDS011;6473;51.552;6.716;2023-12-29T02:24:49;1.73;;;1.50;;
12816;SDS011;6473;51.552;6.716;2023-12-29T02:27:18;10.02;;;2.35;;
12816;SDS011;6473;51.552;6.716;2023-12-29T02:29:48;5.32;;;1.90;;
12816;SDS011;6473;51.552;6.716;2023-12-29T02:32:19;6.68;;;1.77;;
12816;SDS011;6473;51.552;6.716;2023-12-29T02:34:48;7.20;;;2.38;;
12816;SDS011;6473;51.552;6.716;2023-12-29T02:37:16;6.65;;;2.00;;
12816;SDS011;6473;51.552;6.716;2023-12-29T02:39:44;8.10;;;1.88;;
12816;SDS011;6473;51.552;6.716;2023-12-29T02:42:12;3.08;;;1.88;;
12816;SDS011;6473;51.552;6.716;2023-12-29T02:44:39;5.88;;;1.88;;
12816;SDS011;6473;51.552;6.716;2023-12-29T02:47:07;4.82;;;1.95;;
12816;SDS011;6473;51.552;6.716;2023-12-29T02:49:34;4.70;;;2.28;;
12816;SDS011;6473;51.552;6.716;2023-12-29T02:52:02;5.25;;;2.13;;
12816;SDS011;6473;51.552;6.716;2023-12-29T02:54:29;5.93;;;2.13;;
12816;SDS011;6473;51.552;6.716;2023-12-29T02:56:56;5.75;;;2.22;;
12816;SDS011;6473;51.552;6.716;2023-12-29T02:59:25;2.63;;;1.92;;
12816;SDS011;6473;51.552;6.716;2023-12-29T03:01:52;5.53;;;1.55;;
12816;SDS011;6473;51.552;6.716;2023-12-29T03:04:20;4.07;;;1.90;;
12816;SDS011;6473;51.552;6.716;2023-12-29T03:06:47;5.55;;;2.00;;
12816;SDS011;6473;51.552;6.716;2023-12-29T03:09:14;5.88;;;2.70;;
12816;SDS011;6473;51.552;6.716;2023-12-29T03:11:42;3.28;;;2.00;;
12816;SDS011;6473;51.552;6.716;2023-12-29T03:14:09;6.75;;;2.53;;
12816;SDS011;6473;51.552;6.716;2023-12-29T03:16:37;6.25;;;1.92;;
12816;SDS011;6473;51.552;6.716;2023-12-29T03:19:05;2.63;;;1.58;;
12816;SDS011;6473;51.552;6.716;2023-12-29T03:21:32;6.65;;;1.70;;
12816;SDS011;6473;51.552;6.716;2023-12-29T03:24:00;7.18;;;1.88;;
12816;SDS011;6473;51.552;6.716;2023-12-29T03:26:27;6.28;;;1.67;;
12816;SDS011;6473;51.552;6.716;2023-12-29T03:28:54;7.15;;;2.05;;
12816;SDS011;6473;51.552;6.716;2023-12-29T03:31:21;8.05;;;2.05;;
12816;SDS011;6473;51.552;6.716;2023-12-29T03:33:51;3.78;;;1.63;;
12816;SDS011;6473;51.552;6.716;2023-12-29T03:36:18;4.18;;;1.75;;
12816;SDS011;6473;51.552;6.716;2023-12-29T03:38:45;5.35;;;1.77;;
12816;SDS011;6473;51.552;6.716;2023-12-29T03:41:12;3.38;;;1.60;;
12816;SDS011;6473;51.552;6.716;2023-12-29T03:43:40;5.97;;;1.90;;
12816;SDS011;6473;51.552;6.716;2023-12-29T03:46:14;4.40;;;1.30;;
12816;SDS011;6473;51.552;6.716;2023-12-29T03:48:42;3.67;;;1.90;;
12816;SDS011;6473;51.552;6.716;2023-12-29T03:51:11;2.28;;;1.38;;
12816;SDS011;6473;51.552;6.716;2023-12-29T03:53:38;2.60;;;1.58;;
12816;SDS011;6473;51.552;6.716;2023-12-29T03:56:06;5.68;;;1.65;;
12816;SDS011;6473;51.552;6.716;2023-12-29T03:58:34;2.72;;;1.25;;
12816;SDS011;6473;51.552;6.716;2023-12-29T04:01:01;9.57;;;2.22;;
12816;SDS011;6473;51.552;6.716;2023-12-29T04:03:29;5.38;;;1.50;;
12816;SDS011;6473;51.552;6.716;2023-12-29T04:05:56;5.20;;;1.38;;
12816;SDS011;6473;51.552;6.716;2023-12-29T04:08:24;4.53;;;1.70;;
12816;SDS011;6473;51.552;6.716;2023-12-29T04:10:51;6.05;;;1.88;;
12816;SDS011;6473;51.552;6.716;2023-12-29T04:13:19;7.00;;;1.80;;
12816;SDS011;6473;51.552;6.716;2023-12-29T04:15:46;2.78;;;1.60;;
12816;SDS011;6473;51.552;6.716;2023-12-29T04:18:13;4.68;;;1.42;;
12816;SDS011;6473;51.552;6.716;2023-12-29T04:20:40;3.25;;;1.35;;
12816;SDS011;6473;51.552;6.716;2023-12-29T04:23:07;1.92;;;1.38;;
12816;SDS011;6473;51.552;6.716;2023-12-29T04:25:36;4.32;;;2.30;;
12816;SDS011;6473;51.552;6.716;2023-12-29T04:28:05;3.75;;;1.38;;
12816;SDS011;6473;51.552;6.716;2023-12-29T04:30:32;5.45;;;1.30;;
12816;SDS011;6473;51.552;6.716;2023-12-29T04:32:59;5.32;;;1.77;;
12816;SDS011;6473;51.552;6.716;2023-12-29T04:35:26;4.32;;;1.67;;
12816;SDS011;6473;51.552;6.716;2023-12-29T04:37:54;5.47;;;1.70;;
12816;SDS011;6473;51.552;6.716;2023-12-29T04:40:21;5.40;;;1.73;;
12816;SDS011;6473;51.552;6.716;2023-12-29T04:42:49;3.85;;;1.50;;
12816;SDS011;6473;51.552;6.716;2023-12-29T04:45:16;3.50;;;1.50;;
12816;SDS011;6473;51.552;6.716;2023-12-29T04:47:43;2.78;;;1.40;;
12816;SDS011;6473;51.552;6.716;2023-12-29T04:50:11;5.78;;;1.65;;
12816;SDS011;6473;51.552;6.716;2023-12-29T04:52:38;4.85;;;1.20;;
12816;SDS011;6473;51.552;6.716;2023-12-29T04:55:05;2.45;;;1.30;;
12816;SDS011;6473;51.552;6.716;2023-12-29T04:57:33;7.50;;;2.30;;
12816;SDS011;6473;51.552;6.716;2023-12-29T05:00:01;5.97;;;1.70;;
12816;SDS011;6473;51.552;6.716;2023-12-29T05:02:29;3.92;;;1.30;;
12816;SDS011;6473;51.552;6.716;2023-12-29T05:04:56;8.60;;;1.60;;
12816;SDS011;6473;51.552;6.716;2023-12-29T05:07:24;6.80;;;1.83;;
12816;SDS011;6473;51.552;6.716;2023-12-29T05:09:52;4.55;;;1.35;;
12816;SDS011;6473;51.552;6.716;2023-12-29T05:12:19;4.88;;;1.50;;
12816;SDS011;6473;51.552;6.716;2023-12-29T05:14:46;6.10;;;1.67;;
12816;SDS011;6473;51.552;6.716;2023-12-29T05:17:14;5.18;;;1.65;;
12816;SDS011;6473;51.552;6.716;2023-12-29T05:19:41;4.47;;;1.83;;
12816;SDS011;6473;51.552;6.716;2023-12-29T05:22:09;5.25;;;1.52;;
12816;SDS011;6473;51.552;6.716;2023-12-29T05:24:36;4.88;;;1.75;;
12816;SDS011;6473;51.552;6.716;2023-12-29T05:27:03;2.97;;;1.50;;
12816;SDS011;6473;51.552;6.716;2023-12-29T05:29:31;3.67;;;1.23;;
12816;SDS011;6473;51.552;6.716;2023-12-29T05:31:58;3.63;;;1.80;;
12816;SDS011;6473;51.552;6.716;2023-12-29T05:34:28;3.20;;;1.48;;
12816;SDS011;6473;51.552;6.716;2023-12-29T05:36:55;1.98;;;1.40;;
12816;SDS011;6473;51.552;6.716;2023-12-29T05:39:23;3.67;;;1.25;;
12816;SDS011;6473;51.552;6.716;2023-12-29T05:41:50;4.78;;;1.63;;
12816;SDS011;6473;51.552;6.716;2023-12-29T05:44:17;6.55;;;1.30;;
12816;SDS011;6473;51.552;6.716;2023-12-29T05:46:45;2.50;;;1.42;;
12816;SDS011;6473;51.552;6.716;2023-12-29T05:49:13;2.50;;;1.10;;
12816;SDS011;6473;51.552;6.716;2023-12-29T05:51:41;5.95;;;1.50;;
12816;SDS011;6473;51.552;6.716;2023-12-29T05:54:08;8.45;;;1.77;;
12816;SDS011;6473;51.552;6.716;2023-12-29T05:56:35;3.47;;;1.10;;
12816;SDS011;6473;51.552;6.716;2023-12-29T05:59:03;7.28;;;1.38;;
12816;SDS011;6473;51.552;6.716;2023-12-29T06:01:30;5.90;;;1.45;;
12816;SDS011;6473;51.552;6.716;2023-12-29T06:03:57;4.57;;;1.52;;
12816;SDS011;6473;51.552;6.716;2023-12-29T06:06:24;3.33;;;1.40;;
12816;SDS011;6473;51.552;6.716;2023-12-29T06:08:52;5.22;;;1.50;;
12816;SDS011;6473;51.552;6.716;2023-12-29T06:11:20;2.05;;;1.33;;
12816;SDS011;6473;51.552;6.716;2023-12-29T06:13:47;3.83;;;1.30;;
12816;SDS011;6473;51.552;6.716;2023-12-29T06:16:17;4.30;;;1.40;;
12816;SDS011;6473;51.552;6.716;2023-12-29T06:18:45;7.13;;;1.65;;
12816;SDS011;6473;51.552;6.716;2023-12-29T06:21:12;2.83;;;1.17;;
12816;SDS011;6473;51.552;6.716;2023-12-29T06:23:39;5.75;;;1.60;;
12816;SDS011;6473;51.552;6.716;2023-12-29T06:26:14;4.25;;;1.42;;
12816;SDS011;6473;51.552;6.716;2023-12-29T06:28:42;5.10;;;1.58;;
12816;SDS011;6473;51.552;6.716;2023-12-29T06:31:09;5.18;;;1.60;;
12816;SDS011;6473;51.552;6.716;2023-12-29T06:33:36;4.47;;;1.27;;
12816;SDS011;6473;51.552;6.716;2023-12-29T06:36:03;3.88;;;1.55;;
12816;SDS011;6473;51.552;6.716;2023-12-29T06:38:31;6.05;;;1.40;;
12816;SDS011;6473;51.552;6.716;2023-12-29T06:40:58;2.67;;;1.35;;
12816;SDS011;6473;51.552;6.716;2023-12-29T06:43:27;5.05;;;1.55;;
12816;SDS011;6473;51.552;6.716;2023-12-29T06:45:54;6.63;;;1.40;;
12816;SDS011;6473;51.552;6.716;2023-12-29T06:48:21;3.83;;;1.23;;
12816;SDS011;6473;51.552;6.716;2023-12-29T06:51:01;5.38;;;1.55;;
12816;SDS011;6473;51.552;6.716;2023-12-29T06:53:28;6.60;;;1.40;;
12816;SDS011;6473;51.552;6.716;2023-12-29T06:55:55;4.63;;;1.50;;
12816;SDS011;6473;51.552;6.716;2023-12-29T06:58:22;4.45;;;1.50;;
12816;SDS011;6473;51.552;6.716;2023-12-29T07:00:51;2.45;;;1.08;;
12816;SDS011;6473;51.552;6.716;2023-12-29T07:03:18;6.85;;;1.58;;
12816;SDS011;6473;51.552;6.716;2023-12-29T07:05:45;2.58;;;1.52;;
12816;SDS011;6473;51.552;6.716;2023-12-29T07:08:12;6.28;;;2.00;;
12816;SDS011;6473;51.552;6.716;2023-12-29T07:10:40;3.10;;;1.58;;
12816;SDS011;6473;51.552;6.716;2023-12-29T07:13:07;6.82;;;1.50;;
12816;SDS011;6473;51.552;6.716;2023-12-29T07:15:34;2.47;;;1.58;;
12816;SDS011;6473;51.552;6.716;2023-12-29T07:18:04;8.80;;;1.50;;
12816;SDS011;6473;51.552;6.716;2023-12-29T07:20:31;3.45;;;1.42;;
12816;SDS011;6473;51.552;6.716;2023-12-29T07:22:59;3.42;;;1.55;;
12816;SDS011;6473;51.552;6.716;2023-12-29T07:25:27;4.45;;;1.50;;
12816;SDS011;6473;51.552;6.716;2023-12-29T07:27:54;5.32;;;1.73;;
12816;SDS011;6473;51.552;6.716;2023-12-29T07:30:21;4.10;;;1.42;;
12816;SDS011;6473;51.552;6.716;2023-12-29T07:32:48;5.50;;;1.83;;
12816;SDS011;6473;51.552;6.716;2023-12-29T07:35:17;4.03;;;1.38;;
12816;SDS011;6473;51.552;6.716;2023-12-29T07:37:45;4.60;;;1.40;;
12816;SDS011;6473;51.552;6.716;2023-12-29T07:40:12;5.22;;;1.85;;
12816;SDS011;6473;51.552;6.716;2023-12-29T07:42:40;1.25;;;1.00;;
12816;SDS011;6473;51.552;6.716;2023-12-29T07:45:08;5.13;;;1.48;;
12816;SDS011;6473;51.552;6.716;2023-12-29T07:47:35;6.45;;;1.60;;
12816;SDS011;6473;51.552;6.716;2023-12-29T07:50:03;2.08;;;1.38;;
12816;SDS011;6473;51.552;6.716;2023-12-29T07:52:31;5.35;;;1.40;;
12816;SDS011;6473;51.552;6.716;2023-12-29T07:54:59;4.82;;;1.52;;
12816;SDS011;6473;51.552;6.716;2023-12-29T07:57:26;2.17;;;1.60;;
12816;SDS011;6473;51.552;6.716;2023-12-29T07:59:53;4.47;;;1.50;;
12816;SDS011;6473;51.552;6.716;2023-12-29T08:02:21;4.00;;;1.50;;
12816;SDS011;6473;51.552;6.716;2023-12-29T08:04:48;1.92;;;1.30;;
12816;SDS011;6473;51.552;6.716;2023-12-29T08:07:15;4.10;;;1.35;;
12816;SDS011;6473;51.552;6.716;2023-12-29T08:09:43;4.25;;;1.45;;
12816;SDS011;6473;51.552;6.716;2023-12-29T08:12:11;4.57;;;1.50;;
12816;SDS011;6473;51.552;6.716;2023-12-29T08:14:38;4.90;;;1.23;;
12816;SDS011;6473;51.552;6.716;2023-12-29T08:17:05;5.88;;;1.60;;
12816;SDS011;6473;51.552;6.716;2023-12-29T08:19:34;4.70;;;1.52;;
12816;SDS011;6473;51.552;6.716;2023-12-29T08:22:01;4.75;;;1.60;;
12816;SDS011;6473;51.552;6.716;2023-12-29T08:24:28;6.15;;;2.03;;
12816;SDS011;6473;51.552;6.716;2023-12-29T08:26:57;3.00;;;1.52;;
12816;SDS011;6473;51.552;6.716;2023-12-29T08:29:24;5.13;;;1.30;;
12816;SDS011;6473;51.552;6.716;2023-12-29T08:31:51;3.85;;;1.48;;
12816;SDS011;6473;51.552;6.716;2023-12-29T08:34:18;3.72;;;1.85;;
12816;SDS011;6473;51.552;6.716;2023-12-29T08:36:46;5.10;;;1.65;;
12816;SDS011;6473;51.552;6.716;2023-12-29T08:39:13;2.50;;;1.15;;
12816;SDS011;6473;51.552;6.716;2023-12-29T08:41:40;3.47;;;1.50;;
12816;SDS011;6473;51.552;6.716;2023-12-29T08:44:08;4.72;;;1.40;;
12816;SDS011;6473;51.552;6.716;2023-12-29T08:46:36;5.72;;;1.33;;
12816;SDS011;6473;51.552;6.716;2023-12-29T08:49:03;6.10;;;1.50;;
12816;SDS011;6473;51.552;6.716;2023-12-29T08:51:30;3.70;;;1.15;;
12816;SDS011;6473;51.552;6.716;2023-12-29T08:53:57;2.90;;;1.08;;
12816;SDS011;6473;51.552;6.716;2023-12-29T08:56:24;5.25;;;1.50;;
12816;SDS011;6473;51.552;6.716;2023-12-29T08:58:53;3.92;;;1.20;;
12816;SDS011;6473;51.552;6.716;2023-12-29T09:01:21;1.80;;;1.10;;
12816;SDS011;6473;51.552;6.716;2023-12-29T09:03:48;3.17;;;1.05;;
12816;SDS011;6473;51.552;6.716;2023-12-29T09:06:16;1.05;;;0.95;;
12816;SDS011;6473;51.552;6.716;2023-12-29T09:08:43;2.17;;;0.98;;
12816;SDS011;6473;51.552;6.716;2023-12-29T09:11:10;3.92;;;1.35;;
12816;SDS011;6473;51.552;6.716;2023-12-29T09:13:37;2.45;;;0.85;;
12816;SDS011;6473;51.552;6.716;2023-12-29T09:16:04;2.30;;;0.73;;
12816;SDS011;6473;51.552;6.716;2023-12-29T09:18:33;4.05;;;1.20;;
12816;SDS011;6473;51.552;6.716;2023-12-29T09:21:00;0.70;;;0.70;;
12816;SDS011;6473;51.552;6.716;2023-12-29T09:23:27;1.40;;;0.80;;
12816;SDS011;6473;51.552;6.716;2023-12-29T09:25:54;0.95;;;0.52;;
12816;SDS011;6473;51.552;6.716;2023-12-29T09:28:22;1.83;;;0.63;;
12816;SDS011;6473;51.552;6.716;2023-12-29T09:30:49;1.48;;;0.70;;
12816;SDS011;6473;51.552;6.716;2023-12-29T09:33:16;1.38;;;0.70;;
12816;SDS011;6473;51.552;6.716;2023-12-29T09:35:44;1.08;;;0.80;;
12816;SDS011;6473;51.552;6.716;2023-12-29T09:38:12;1.05;;;0.70;;
12816;SDS011;6473;51.552;6.716;2023-12-29T09:40:39;0.98;;;0.57;;
12816;SDS011;6473;51.552;6.716;2023-12-29T09:43:06;0.82;;;0.82;;
12816;SDS011;6473;51.552;6.716;2023-12-29T09:45:37;1.80;;;0.60;;
12816;SDS011;6473;51.552;6.716;2023-12-29T09:48:05;1.83;;;0.75;;
12816;SDS011;6473;51.552;6.716;2023-12-29T09:50:34;0.38;;;0.38;;
12816;SDS011;6473;51.552;6.716;2023-12-29T09:53:03;1.65;;;0.70;;
12816;SDS011;6473;51.552;6.716;2023-12-29T09:55:31;0.75;;;0.70;;
12816;SDS011;6473;51.552;6.716;2023-12-29T09:57:59;0.80;;;0.52;;
12816;SDS011;6473;51.552;6.716;2023-12-29T10:00:27;1.73;;;0.68;;
12816;SDS011;6473;51.552;6.716;2023-12-29T10:02:54;1.27;;;0.50;;
12816;SDS011;6473;51.552;6.716;2023-12-29T10:05:22;0.75;;;0.20;;
12816;SDS011;6473;51.552;6.716;2023-12-29T10:07:49;0.70;;;0.60;;
12816;SDS011;6473;51.552;6.716;2023-12-29T10:10:19;0.40;;;0.40;;
12816;SDS011;6473;51.552;6.716;2023-12-29T10:12:49;0.68;;;0.38;;
12816;SDS011;6473;51.552;6.716;2023-12-29T10:15:17;0.75;;;0.43;;
12816;SDS011;6473;51.552;6.716;2023-12-29T10:17:49;0.43;;;0.43;;
12816;SDS011;6473;51.552;6.716;2023-12-29T10:20:22;0.50;;;0.50;;
12816;SDS011;6473;51.552;6.716;2023-12-29T10:22:54;0.60;;;0.50;;
12816;SDS011;6473;51.552;6.716;2023-12-29T10:25:26;0.50;;;0.50;;
12816;SDS011;6473;51.552;6.716;2023-12-29T10:27:54;1.23;;;0.85;;
12816;SDS011;6473;51.552;6.716;2023-12-29T10:30:22;0.82;;;0.50;;
12816;SDS011;6473;51.552;6.716;2023-12-29T10:32:49;1.40;;;0.40;;
12816;SDS011;6473;51.552;6.716;2023-12-29T10:35:17;0.30;;;0.30;;
12816;SDS011;6473;51.552;6.716;2023-12-29T10:37:44;0.43;;;0.43;;
12816;SDS011;6473;51.552;6.716;2023-12-29T10:40:16;0.68;;;0.68;;
12816;SDS011;6473;51.552;6.716;2023-12-29T10:42:52;0.93;;;0.50;;
12816;SDS011;6473;51.552;6.716;2023-12-29T10:45:20;1.75;;;0.50;;
12816;SDS011;6473;51.552;6.716;2023-12-29T10:47:49;2.28;;;0.65;;
12816;SDS011;6473;51.552;6.716;2023-12-29T10:50:17;0.60;;;0.60;;
12816;SDS011;6473;51.552;6.716;2023-12-29T10:52:44;0.75;;;0.63;;
12816;SDS011;6473;51.552;6.716;2023-12-29T10:55:11;1.30;;;0.70;;
12816;SDS011;6473;51.552;6.716;2023-12-29T10:57:39;1.55;;;0.63;;
12816;SDS011;6473;51.552;6.716;2023-12-29T11:00:09;0.88;;;0.68;;
12816;SDS011;6473;51.552;6.716;2023-12-29T11:02:37;1.27;;;0.80;;
12816;SDS011;6473;51.552;6.716;2023-12-29T11:05:05;0.95;;;0.93;;
12816;SDS011;6473;51.552;6.716;2023-12-29T11:07:36;0.50;;;0.50;;
12816;SDS011;6473;51.552;6.716;2023-12-29T11:10:04;1.08;;;0.75;;
12816;SDS011;6473;51.552;6.716;2023-12-29T11:12:33;1.63;;;0.80;;
12816;SDS011;6473;51.552;6.716;2023-12-29T11:15:01;0.73;;;0.65;;
12816;SDS011;6473;51.552;6.716;2023-12-29T11:17:30;0.77;;;0.73;;
12816;SDS011;6473;51.552;6.716;2023-12-29T11:19:58;0.90;;;0.70;;
12816;SDS011;6473;51.552;6.716;2023-12-29T11:22:27;1.48;;;1.02;;
12816;SDS011;6473;51.552;6.716;2023-12-29T11:24:55;1.35;;;0.68;;
12816;SDS011;6473;51.552;6.716;2023-12-29T11:27:25;1.60;;;1.05;;
12816;SDS011;6473;51.552;6.716;2023-12-29T11:29:55;1.50;;;0.70;;
12816;SDS011;6473;51.552;6.716;2023-12-29T11:32:24;0.52;;;0.40;;
12816;SDS011;6473;51.552;6.716;2023-12-29T11:34:55;1.85;;;0.75;;
12816;SDS011;6473;51.552;6.716;2023-12-29T11:37:26;1.40;;;0.70;;
12816;SDS011;6473;51.552;6.716;2023-12-29T11:39:56;3.65;;;0.95;;
12816;SDS011;6473;51.552;6.716;2023-12-29T11:42:26;0.77;;;0.77;;
12816;SDS011;6473;51.552;6.716;2023-12-29T11:44:56;0.90;;;0.70;;
12816;SDS011;6473;51.552;6.716;2023-12-29T11:47:35;2.85;;;0.73;;
12816;SDS011;6473;51.552;6.716;2023-12-29T11:50:04;0.75;;;0.60;;
12816;SDS011;6473;51.552;6.716;2023-12-29T11:52:32;1.65;;;0.85;;
12816;SDS011;6473;51.552;6.716;2023-12-29T11:55:06;1.50;;;0.90;;
12816;SDS011;6473;51.552;6.716;2023-12-29T11:57:34;1.23;;;0.70;;
12816;SDS011;6473;51.552;6.716;2023-12-29T12:00:01;4.65;;;0.95;;
12816;SDS011;6473;51.552;6.716;2023-12-29T12:02:37;2.58;;;1.15;;
12816;SDS011;6473;51.552;6.716;2023-12-29T12:05:06;1.67;;;0.80;;
12816;SDS011;6473;51.552;6.716;2023-12-29T12:10:30;1.88;;;0.98;;
12816;SDS011;6473;51.552;6.716;2023-12-29T12:12:58;2.33;;;1.00;;
12816;SDS011;6473;51.552;6.716;2023-12-29T12:15:32;1.77;;;1.02;;
12816;SDS011;6473;51.552;6.716;2023-12-29T12:18:00;4.07;;;0.80;;
12816;SDS011;6473;51.552;6.716;2023-12-29T12:20:30;3.40;;;0.80;;
12816;SDS011;6473;51.552;6.716;2023-12-29T12:22:58;3.35;;;0.88;;
12816;SDS011;6473;51.552;6.716;2023-12-29T12:25:26;1.45;;;0.70;;
12816;SDS011;6473;51.552;6.716;2023-12-29T12:27:54;1.67;;;1.00;;
12816;SDS011;6473;51.552;6.716;2023-12-29T12:30:21;3.83;;;0.85;;
12816;SDS011;6473;51.552;6.716;2023-12-29T12:32:57;1.13;;;0.90;;
12816;SDS011;6473;51.552;6.716;2023-12-29T12:35:26;0.75;;;0.70;;
12816;SDS011;6473;51.552;6.716;2023-12-29T12:38:07;2.60;;;1.25;;
12816;SDS011;6473;51.552;6.716;2023-12-29T12:40:35;1.20;;;0.90;;
12816;SDS011;6473;51.552;6.716;2023-12-29T12:43:03;4.53;;;1.17;;
12816;SDS011;6473;51.552;6.716;2023-12-29T12:45:33;2.85;;;0.90;;
12816;SDS011;6473;51.552;6.716;2023-12-29T12:48:02;1.10;;;1.00;;
12816;SDS011;6473;51.552;6.716;2023-12-29T12:50:29;1.10;;;0.88;;
12816;SDS011;6473;51.552;6.716;2023-12-29T12:52:57;0.90;;;0.70;;
12816;SDS011;6473;51.552;6.716;2023-12-29T12:55:25;1.63;;;1.00;;
12816;SDS011;6473;51.552;6.716;2023-12-29T12:57:53;0.90;;;0.90;;
12816;SDS011;6473;51.552;6.716;2023-12-29T13:00:21;1.70;;;0.90;;
12816;SDS011;6473;51.552;6.716;2023-12-29T13:02:49;1.70;;;0.90;;
12816;SDS011;6473;51.552;6.716;2023-12-29T13:05:16;2.45;;;1.00;;
12816;SDS011;6473;51.552;6.716;2023-12-29T13:07:43;1.42;;;1.25;;
12816;SDS011;6473;51.552;6.716;2023-12-29T13:10:11;1.70;;;1.00;;
12816;SDS011;6473;51.552;6.716;2023-12-29T13:12:39;1.20;;;1.10;;
12816;SDS011;6473;51.552;6.716;2023-12-29T13:15:07;2.47;;;1.05;;
12816;SDS011;6473;51.552;6.716;2023-12-29T13:17:35;3.20;;;1.00;;
12816;SDS011;6473;51.552;6.716;2023-12-29T13:20:02;2.75;;;1.10;;
12816;SDS011;6473;51.552;6.716;2023-12-29T13:22:31;1.42;;;1.10;;
12816;SDS011;6473;51.552;6.716;2023-12-29T13:24:58;2.20;;;1.40;;
12816;SDS011;6473;51.552;6.716;2023-12-29T13:27:26;1.50;;;1.40;;
12816;SDS011;6473;51.552;6.716;2023-12-29T13:29:55;1.65;;;1.10;;
12816;SDS011;6473;51.552;6.716;2023-12-29T13:32:23;2.70;;;1.45;;
12816;SDS011;6473;51.552;6.716;2023-12-29T13:34:54;1.17;;;0.80;;
12816;SDS011;6473;51.552;6.716;2023-12-29T13:37:24;0.88;;;0.88;;
12816;SDS011;6473;51.552;6.716;2023-12-29T13:39:52;0.68;;;0.60;;
12816;SDS011;6473;51.552;6.716;2023-12-29T13:42:20;2.33;;;0.93;;
12816;SDS011;6473;51.552;6.716;2023-12-29T13:44:49;0.80;;;0.75;;
12816;SDS011;6473;51.552;6.716;2023-12-29T13:47:18;1.00;;;0.75;;
12816;SDS011;6473;51.552;6.716;2023-12-29T13:49:46;1.52;;;0.55;;
12816;SDS011;6473;51.552;6.716;2023-12-29T13:52:14;0.80;;;0.40;;
12816;SDS011;6473;51.552;6.716;2023-12-29T13:54:43;0.80;;;0.60;;
12816;SDS011;6473;51.552;6.716;2023-12-29T13:57:10;0.63;;;0.50;;
12816;SDS011;6473;51.552;6.716;2023-12-29T13:59:37;0.40;;;0.40;;
12816;SDS011;6473;51.552;6.716;2023-12-29T14:02:18;0.88;;;0.55;;
12816;SDS011;6473;51.552;6.716;2023-12-29T14:07:16;1.33;;;0.65;;
12816;SDS011;6473;51.552;6.716;2023-12-29T14:09:46;1.08;;;0.80;;
12816;SDS011;6473;51.552;6.716;2023-12-29T14:12:13;0.70;;;0.70;;
12816;SDS011;6473;51.552;6.716;2023-12-29T14:14:41;1.33;;;1.15;;
12816;SDS011;6473;51.552;6.716;2023-12-29T14:17:08;0.70;;;0.70;;
12816;SDS011;6473;51.552;6.716;2023-12-29T14:19:36;2.15;;;1.20;;
12816;SDS011;6473;51.552;6.716;2023-12-29T14:22:04;1.13;;;0.90;;
12816;SDS011;6473;51.552;6.716;2023-12-29T14:24:32;3.15;;;1.33;;
12816;SDS011;6473;51.552;6.716;2023-12-29T14:26:59;5.38;;;1.65;;
12816;SDS011;6473;51.552;6.716;2023-12-29T14:29:27;1.48;;;1.38;;
12816;SDS011;6473;51.552;6.716;2023-12-29T14:31:55;2.47;;;1.70;;
12816;SDS011;6473;51.552;6.716;2023-12-29T14:37:44;3.22;;;1.20;;
12816;SDS011;6473;51.552;6.716;2023-12-29T14:40:13;4.18;;;1.10;;
12816;SDS011;6473;51.552;6.716;2023-12-29T14:42:40;1.92;;;1.08;;
12816;SDS011;6473;51.552;6.716;2023-12-29T14:45:08;1.13;;;1.05;;
12816;SDS011;6473;51.552;6.716;2023-12-29T14:47:35;0.88;;;0.73;;
12816;SDS011;6473;51.552;6.716;2023-12-29T14:50:03;1.60;;;1.08;;
12816;SDS011;6473;51.552;6.716;2023-12-29T14:52:30;1.25;;;0.95;;
12816;SDS011;6473;51.552;6.716;2023-12-29T14:54:57;2.22;;;1.02;;
12816;SDS011;6473;51.552;6.716;2023-12-29T14:57:26;1.95;;;0.90;;
12816;SDS011;6473;51.552;6.716;2023-12-29T14:59:53;2.13;;;0.75;;
12816;SDS011;6473;51.552;6.716;2023-12-29T15:02:20;1.05;;;0.98;;
12816;SDS011;6473;51.552;6.716;2023-12-29T15:07:43;0.93;;;0.80;;
12816;SDS011;6473;51.552;6.716;2023-12-29T15:10:10;0.95;;;0.50;;
12816;SDS011;6473;51.552;6.716;2023-12-29T15:12:39;0.82;;;0.65;;
12816;SDS011;6473;51.552;6.716;2023-12-29T15:15:08;1.08;;;0.50;;
12816;SDS011;6473;51.552;6.716;2023-12-29T15:17:36;2.97;;;0.80;;